Weather at St Louis Lambert International Airport

Public forecast

Using degrees Fahrenheit for public forecast. Weather courtesy of forecast.io.

Current aviation weather report (METAR) for St Louis Lambert International Airport

Retrieved 2021/07/29 07:51 UTC (34 minutes ago):

KSTL 290751Z 20004KT 9SM FEW250 28/24 A3001 RMK AO2 SLP144 T02780239

Aviation forecast (TAF) for St Louis Lambert International Airport

Retrieved 2021/07/29 06:22 UTC (2 hours ago):

TAF KSTL 290520Z 2906/3012 VRB04KT P6SM SKC FM291500 27010G16KT P6SM SCT035 BKN250 FM300100 30007KT P6SM VCTS BKN050CB FM300700 01006KT P6SM SCT050 BKN100